KIOW Airport Information

Runway Information
Runway 07 Length 4355 ft width 150 ft
Elevation 668 ft Threshold 0 ft Heading 71
Runway 25 Length 4355 ft Width 150 ft
Elevation 650 ft Threshold 150 ft Heading 251
Runway 12 Length 3900 ft width 150 ft
Elevation 662 ft Threshold 0 ft Heading 125
Runway 30 Length 3900 ft Width 150 ft
Elevation 649 ft Threshold 0 ft Heading 305
Airport Frequencies
Type A/D Name CEDAR RAPI Frequency 119.7 MHZ
Type ASOS Name ASOS Frequency 128.075 MHZ
Type CLD Name CLNC DEL Frequency 119.05 MHZ
Type RDO Name FORT DODGE Frequency 122.25 MHZ
Type UNIC Name CTAF/UNICO Frequency 122.8 MHZ
Airport Navaids
Airport Weather Information & NOTAM
ADDS - METARS form results

(0340 UTC 01 October 2020)
Data provider http://aviationweather.gov/metar/data/
 
METAR text: KIOW 010252Z AUTO 27005KT 10SM CLR 09/03 A2997 RMK AO2 SLP151 T00940033 51017
Conditions at: KIOW (IOWA CITY , IA, US) observed 0252 UTC 01 October 2020
Temperature: 9.4°C (49°F)
Dewpoint: 3.3°C (38°F) [RH = 66%]
Pressure (altimeter): 29.97 inches Hg (1015.0 mb)
[Sea-level pressure: 1015.1 mb]
Winds: from the W (270 degrees) at 6 MPH (5 knots; 2.6 m/s)
Visibility: 10 or more miles (16+ km)
Ceiling: at least 12,000 feet AGL
Clouds: sky clear below 12,000 feet AGL
Weather: automated observation with no human augmentation;
there may or may not be significant weather present at this time